Aviation Digital Data Service (ADDS)

Output produced by METARs form (0010 UTC 16 February 2019)
found at http://www.aviationweather.gov/metar/data/
 
Forecast for: KMCO (ORLANDO , FL, US)
Text: KMCO 152332Z 1600/1706 18003KT P6SM SCT250
Forecast period: 0000 to 1400 UTC 16 February 2019
Forecast type: FROM: standard forecast or significant change
Winds: from the S (180 degrees) at 3 MPH (3 knots; 1.5 m/s)
Visibility: 6 or more miles 10+ km)
Ceiling: at least 12,000 feet AGL
Clouds: scattered clouds at 25000 feet AGL
Weather: no significant weather forecast for this period
Text: TEMPO 1609/1613 5SM BR MIFG
Forecast period: 0900 to 1300 UTC 16 February 2019
Forecast type: TEMPORARY: The following changes expected for less than half the time period
Visibility: 5 miles (8 km)
Ceiling: unknown
Clouds: missing
Weather: BR MIFG  (mist, shallow fog)
Text: FM161400 23009KT P6SM SCT040 SCT250
Forecast period: 1400 UTC 16 February 2019 to 0600 UTC 17 February 2019
Forecast type: FROM: standard forecast or significant change
Winds: from the SW (230 degrees) at 10 MPH (9 knots; 4.6 m/s)
Visibility: 6 or more miles 10+ km)
Ceiling: at least 12,000 feet AGL
Clouds: scattered clouds at 4000 feet AGL
scattered clouds at 25000 feet AGL
Weather: no significant weather forecast for this period